createdAt,value
2022-09-30T00:00:08.345Z,5.40
2022-09-30T00:01:08.327Z,5.44
2022-09-30T00:02:08.353Z,5.40
2022-09-30T00:03:08.331Z,5.44
2022-09-30T00:04:08.268Z,5.38
2022-09-30T00:05:08.251Z,5.40
2022-09-30T00:06:09.124Z,5.41
2022-09-30T00:07:08.206Z,5.36
2022-09-30T00:08:08.191Z,5.44
2022-09-30T00:09:08.232Z,5.33
2022-09-30T00:10:08.153Z,5.29
2022-09-30T00:11:08.133Z,5.31
2022-09-30T00:12:08.113Z,5.26
2022-09-30T00:13:08.093Z,5.26
2022-09-30T00:14:08.077Z,5.26
2022-09-30T00:15:08.061Z,5.26
2022-09-30T00:16:08.136Z,5.25
2022-09-30T00:17:08.043Z,5.20
2022-09-30T00:18:08.001Z,5.13
2022-09-30T00:19:08.960Z,5.19
2022-09-30T00:20:07.963Z,5.13
2022-09-30T00:21:07.940Z,5.12
2022-09-30T00:22:07.923Z,5.13
2022-09-30T00:23:07.900Z,5.10
2022-09-30T00:24:07.891Z,5.10
2022-09-30T00:25:07.864Z,5.07
2022-09-30T00:26:07.844Z,5.08
2022-09-30T00:27:07.828Z,5.02
2022-09-30T00:28:07.806Z,5.10
2022-09-30T00:29:07.791Z,5.04
2022-09-30T00:30:07.769Z,5.04
2022-09-30T00:31:07.790Z,5.01
2022-09-30T00:32:07.727Z,5.00
2022-09-30T00:33:07.715Z,4.97
2022-09-30T00:34:08.015Z,4.98
2022-09-30T00:35:07.676Z,4.95
2022-09-30T00:36:07.651Z,4.97
2022-09-30T00:37:07.639Z,4.95
2022-09-30T00:38:07.615Z,5.00
2022-09-30T00:39:07.595Z,5.02
2022-09-30T00:40:07.576Z,5.00
2022-09-30T00:41:07.556Z,4.95
2022-09-30T00:42:07.539Z,4.90
2022-09-30T00:43:07.520Z,4.86
2022-09-30T00:44:07.501Z,4.82
2022-09-30T00:45:07.479Z,4.86
2022-09-30T00:46:07.458Z,4.86
2022-09-30T00:47:07.450Z,4.90
2022-09-30T00:48:07.418Z,4.92
2022-09-30T00:49:07.406Z,4.79
2022-09-30T00:50:07.382Z,4.87
2022-09-30T00:51:07.364Z,4.78
2022-09-30T00:52:07.344Z,4.83
2022-09-30T00:53:07.324Z,4.79
2022-09-30T00:54:07.305Z,4.79
2022-09-30T00:55:07.289Z,4.83
2022-09-30T00:56:07.266Z,4.86
2022-09-30T00:57:07.246Z,4.82
2022-09-30T00:58:07.227Z,4.75
2022-09-30T00:59:07.207Z,4.78
2022-09-30T01:00:07.187Z,4.82
2022-09-30T01:01:07.229Z,4.76
2022-09-30T01:02:07.228Z,4.74
2022-09-30T01:03:07.129Z,4.74
2022-09-30T01:04:07.113Z,4.74
2022-09-30T01:05:07.095Z,4.70
2022-09-30T01:06:07.067Z,4.66
2022-09-30T01:07:07.052Z,4.71
2022-09-30T01:08:07.030Z,4.70
2022-09-30T01:09:07.065Z,4.70
2022-09-30T01:10:06.993Z,4.61
2022-09-30T01:11:08.330Z,4.66
2022-09-30T01:12:06.952Z,4.64
2022-09-30T01:13:06.933Z,4.57
2022-09-30T01:14:06.914Z,4.57
2022-09-30T01:15:06.893Z,4.53
2022-09-30T01:16:07.035Z,4.56
2022-09-30T01:17:06.927Z,4.57
2022-09-30T01:18:06.837Z,4.53
2022-09-30T01:19:06.817Z,4.57
2022-09-30T01:20:06.798Z,4.49
2022-09-30T01:21:06.780Z,4.50
2022-09-30T01:22:06.760Z,4.46
2022-09-30T01:23:06.762Z,4.52
2022-09-30T01:24:06.720Z,4.49
2022-09-30T01:25:06.699Z,4.39
2022-09-30T01:26:06.684Z,4.45
2022-09-30T01:27:06.662Z,4.39
2022-09-30T01:28:06.639Z,4.48
2022-09-30T01:29:06.624Z,4.56
2022-09-30T01:30:06.600Z,4.48
2022-09-30T01:31:06.657Z,4.50
2022-09-30T01:32:06.560Z,4.46
2022-09-30T01:33:06.544Z,4.48
2022-09-30T01:34:06.525Z,4.40
2022-09-30T01:35:06.505Z,4.40
2022-09-30T01:36:06.483Z,4.50
2022-09-30T01:37:06.466Z,4.39
2022-09-30T01:38:06.449Z,4.46
2022-09-30T01:39:06.425Z,4.48
2022-09-30T01:40:06.407Z,4.49
2022-09-30T01:41:06.382Z,4.46
2022-09-30T01:42:06.369Z,4.48
2022-09-30T01:43:06.346Z,4.46
2022-09-30T01:44:06.325Z,4.53
2022-09-30T01:45:06.306Z,4.53
2022-09-30T01:46:06.284Z,4.64
2022-09-30T01:47:06.337Z,4.63
2022-09-30T01:48:06.249Z,4.68
2022-09-30T01:49:06.229Z,4.67
2022-09-30T01:50:06.209Z,4.68
2022-09-30T01:51:06.190Z,4.74
2022-09-30T01:52:06.167Z,4.82
2022-09-30T01:53:06.158Z,4.78
2022-09-30T01:54:06.131Z,4.94
2022-09-30T01:55:06.108Z,4.83
2022-09-30T01:56:06.092Z,4.95
2022-09-30T01:57:06.070Z,4.95
2022-09-30T01:58:06.056Z,4.87
2022-09-30T01:59:06.029Z,5.02
2022-09-30T02:00:06.020Z,5.00
2022-09-30T02:01:06.043Z,4.98
2022-09-30T02:02:06.046Z,5.04
2022-09-30T02:03:05.953Z,5.08
2022-09-30T02:04:05.933Z,5.10
2022-09-30T02:05:05.915Z,5.18
2022-09-30T02:06:05.895Z,5.18
2022-09-30T02:07:05.874Z,5.23
2022-09-30T02:08:05.855Z,5.25
2022-09-30T02:09:05.889Z,5.33
2022-09-30T02:10:05.821Z,5.26
2022-09-30T02:11:05.800Z,5.23
2022-09-30T02:12:05.778Z,5.43
2022-09-30T02:13:05.761Z,5.43
2022-09-30T02:14:05.740Z,5.47
2022-09-30T02:15:05.720Z,5.55
2022-09-30T02:16:05.731Z,5.52
2022-09-30T02:17:05.680Z,5.54
2022-09-30T02:18:05.664Z,5.62
2022-09-30T02:19:05.660Z,5.58
2022-09-30T02:20:05.675Z,5.70
2022-09-30T02:21:05.645Z,5.67
2022-09-30T02:22:05.597Z,5.70
2022-09-30T02:23:05.570Z,5.79
2022-09-30T02:24:05.547Z,5.67
2022-09-30T02:25:05.539Z,5.77
2022-09-30T02:26:05.510Z,5.81
2022-09-30T02:27:05.492Z,5.88
2022-09-30T02:28:05.483Z,5.99
2022-09-30T02:29:05.465Z,6.02
2022-09-30T02:30:05.435Z,6.06
2022-09-30T02:31:05.490Z,6.07
2022-09-30T02:32:05.397Z,6.15
2022-09-30T02:33:05.382Z,6.17
2022-09-30T02:34:05.355Z,6.15
2022-09-30T02:35:05.338Z,6.19
2022-09-30T02:36:05.315Z,6.29
2022-09-30T02:37:05.300Z,6.28
2022-09-30T02:38:05.275Z,6.28
2022-09-30T02:39:05.269Z,6.26
2022-09-30T02:40:05.240Z,6.28
2022-09-30T02:41:05.357Z,6.29
2022-09-30T02:42:05.203Z,6.38
2022-09-30T02:43:05.192Z,6.39
2022-09-30T02:44:05.164Z,6.44
2022-09-30T02:45:05.153Z,6.38
2022-09-30T02:46:05.128Z,6.44
2022-09-30T02:47:05.117Z,6.53
2022-09-30T02:48:05.093Z,6.52
2022-09-30T02:49:05.071Z,6.52
2022-09-30T02:50:05.056Z,6.54
2022-09-30T02:51:05.042Z,6.59
2022-09-30T02:52:05.015Z,6.60
2022-09-30T02:53:05.003Z,6.59
2022-09-30T02:54:04.981Z,6.64
2022-09-30T02:55:04.958Z,6.62
2022-09-30T02:56:04.943Z,6.68
2022-09-30T02:57:04.930Z,6.68
2022-09-30T02:58:04.904Z,6.78
2022-09-30T02:59:04.884Z,6.77
2022-09-30T03:00:08.932Z,6.72
2022-09-30T03:01:04.889Z,6.72
2022-09-30T03:02:04.873Z,6.68
2022-09-30T03:03:04.811Z,6.75
2022-09-30T03:04:04.791Z,6.71
2022-09-30T03:05:04.772Z,6.71
2022-09-30T03:06:04.754Z,6.75
2022-09-30T03:07:04.744Z,6.70
2022-09-30T03:08:04.715Z,6.74
2022-09-30T03:09:04.789Z,6.71
2022-09-30T03:10:04.680Z,6.77
2022-09-30T03:11:04.667Z,6.74
2022-09-30T03:12:04.640Z,6.78
2022-09-30T03:13:04.624Z,6.75
2022-09-30T03:14:04.604Z,6.75
2022-09-30T03:15:04.594Z,6.75
2022-09-30T03:16:04.635Z,6.85
2022-09-30T03:17:04.548Z,6.75
2022-09-30T03:18:04.528Z,6.77
2022-09-30T03:19:04.517Z,6.80
2022-09-30T03:20:04.495Z,6.78
2022-09-30T03:21:04.490Z,6.75
2022-09-30T03:22:04.461Z,6.71
2022-09-30T03:23:04.436Z,6.72
2022-09-30T03:24:04.414Z,6.75
2022-09-30T03:25:04.400Z,6.75
2022-09-30T03:26:04.459Z,6.70
2022-09-30T03:27:04.360Z,6.74
2022-09-30T03:28:04.342Z,6.77
2022-09-30T03:29:04.324Z,6.68
2022-09-30T03:30:04.305Z,6.64
2022-09-30T03:31:04.315Z,6.60
2022-09-30T03:32:04.266Z,6.62
2022-09-30T03:33:04.249Z,6.57
2022-09-30T03:34:04.234Z,6.59
2022-09-30T03:35:04.212Z,6.60
2022-09-30T03:36:04.194Z,6.57
2022-09-30T03:37:05.267Z,6.38
2022-09-30T03:38:11.869Z,6.43
2022-09-30T03:40:09.220Z,6.39
2022-09-30T03:41:09.423Z,6.25
2022-09-30T03:43:14.895Z,6.22
2022-09-30T03:44:14.843Z,6.16
2022-09-30T03:46:19.124Z,6.07
2022-09-30T03:47:19.052Z,6.13
2022-09-30T03:49:23.115Z,6.06
2022-09-30T03:50:22.972Z,5.99
2022-09-30T03:52:28.436Z,5.91
2022-09-30T03:53:28.456Z,5.84
2022-09-30T03:55:32.449Z,5.79
2022-09-30T03:56:32.383Z,5.73
2022-09-30T03:58:25.474Z,5.72
2022-09-30T03:59:25.461Z,5.74
2022-09-30T04:01:29.911Z,5.69
2022-09-30T04:02:29.867Z,5.56
2022-09-30T04:04:33.853Z,5.64
2022-09-30T04:05:33.850Z,5.56
2022-09-30T04:07:37.824Z,5.49
2022-09-30T04:08:37.738Z,5.52
2022-09-30T04:10:42.738Z,5.52
2022-09-30T04:11:42.722Z,5.51
2022-09-30T04:13:46.698Z,5.51
2022-09-30T04:14:46.663Z,5.41
2022-09-30T04:16:53.817Z,5.38
2022-09-30T04:17:50.580Z,5.41
2022-09-30T04:19:54.574Z,5.33
2022-09-30T04:20:54.563Z,5.31
2022-09-30T04:22:58.581Z,5.25
2022-09-30T04:23:58.478Z,5.16
2022-09-30T04:26:02.461Z,5.16
2022-09-30T04:27:02.410Z,5.13
2022-09-30T04:28:55.313Z,5.01
2022-09-30T04:29:55.304Z,5.08
2022-09-30T04:31:59.737Z,5.00
2022-09-30T04:32:59.687Z,5.00
2022-09-30T04:35:04.685Z,4.89
2022-09-30T04:36:04.641Z,4.87
2022-09-30T04:38:08.619Z,4.84
2022-09-30T04:39:08.582Z,4.76
2022-09-30T04:41:12.549Z,4.74
2022-09-30T04:42:12.506Z,4.66
2022-09-30T04:44:17.500Z,4.61
2022-09-30T04:45:17.476Z,4.56
2022-09-30T04:47:22.482Z,4.49
2022-09-30T04:48:22.411Z,4.40
2022-09-30T04:50:26.381Z,4.39
2022-09-30T04:51:26.350Z,4.40
2022-09-30T04:53:31.835Z,4.40
2022-09-30T04:54:31.771Z,4.31
2022-09-30T04:55:31.752Z,4.21
2022-09-30T04:56:31.732Z,4.20
2022-09-30T04:57:31.711Z,4.16
2022-09-30T04:58:36.696Z,4.21
2022-09-30T04:59:31.680Z,4.16
2022-09-30T05:00:31.723Z,4.10
2022-09-30T05:01:31.638Z,4.14
2022-09-30T05:02:31.656Z,4.09
2022-09-30T05:03:31.616Z,4.18
2022-09-30T05:04:31.585Z,4.18
2022-09-30T05:05:31.561Z,4.18
2022-09-30T05:06:31.537Z,4.03
2022-09-30T05:07:31.519Z,4.06
2022-09-30T05:08:31.498Z,3.94
2022-09-30T05:09:31.509Z,3.95
2022-09-30T05:10:31.455Z,3.88
2022-09-30T05:11:31.445Z,3.95
2022-09-30T05:12:31.415Z,3.89
2022-09-30T05:13:31.397Z,3.85
2022-09-30T05:14:31.374Z,3.88
2022-09-30T05:15:31.357Z,3.82
2022-09-30T05:16:31.439Z,3.89
2022-09-30T05:17:31.323Z,3.78
2022-09-30T05:18:31.298Z,3.88
2022-09-30T05:19:31.300Z,3.91
2022-09-30T05:20:31.256Z,3.78
2022-09-30T05:21:31.257Z,3.77
2022-09-30T05:22:31.215Z,3.77
2022-09-30T05:23:31.202Z,3.73
2022-09-30T05:24:31.177Z,3.81
2022-09-30T05:25:31.161Z,3.81
2022-09-30T05:26:31.145Z,3.77
2022-09-30T05:27:31.127Z,3.77
2022-09-30T05:28:31.097Z,3.84
2022-09-30T05:29:31.081Z,3.71
2022-09-30T05:30:31.056Z,3.77
2022-09-30T05:31:31.097Z,3.95
2022-09-30T05:32:31.019Z,3.77
2022-09-30T05:33:31.005Z,3.74
2022-09-30T05:34:31.000Z,3.77
2022-09-30T05:35:30.959Z,3.86
2022-09-30T05:36:30.943Z,3.78
2022-09-30T05:37:30.919Z,3.82
2022-09-30T05:38:30.896Z,3.76
2022-09-30T05:39:30.897Z,3.81
2022-09-30T05:40:30.862Z,3.88
2022-09-30T05:41:30.860Z,3.81
2022-09-30T05:42:30.819Z,3.81
2022-09-30T05:43:30.802Z,3.85
2022-09-30T05:44:30.831Z,3.78
2022-09-30T05:45:30.762Z,3.74
2022-09-30T05:46:30.770Z,3.89
2022-09-30T05:47:30.716Z,3.78
2022-09-30T05:48:30.698Z,3.73
2022-09-30T05:49:30.677Z,3.77
2022-09-30T05:50:30.658Z,3.81
2022-09-30T05:51:30.636Z,3.77
2022-09-30T05:52:30.613Z,3.76
2022-09-30T05:53:30.601Z,3.73
2022-09-30T05:54:30.579Z,3.85
2022-09-30T05:55:30.563Z,3.74
2022-09-30T05:56:30.541Z,3.77
2022-09-30T05:57:30.518Z,3.78
2022-09-30T05:58:30.496Z,3.88
2022-09-30T05:59:30.479Z,3.91
2022-09-30T06:00:30.455Z,4.03
2022-09-30T06:01:30.465Z,4.04
2022-09-30T06:02:30.507Z,4.04
2022-09-30T06:03:30.395Z,4.03
2022-09-30T06:04:30.378Z,4.16
2022-09-30T06:05:30.364Z,4.06
2022-09-30T06:06:30.354Z,4.07
2022-09-30T06:07:30.317Z,4.20
2022-09-30T06:08:30.297Z,4.21
2022-09-30T06:09:30.388Z,4.13
2022-09-30T06:10:30.256Z,4.18
2022-09-30T06:11:30.238Z,4.14
2022-09-30T06:12:30.215Z,4.20
2022-09-30T06:13:30.200Z,4.16
2022-09-30T06:14:30.174Z,4.25
2022-09-30T06:15:30.157Z,4.24
2022-09-30T06:16:30.198Z,4.22
2022-09-30T06:17:30.115Z,4.22
2022-09-30T06:18:30.094Z,4.39
2022-09-30T06:19:30.084Z,4.28
2022-09-30T06:20:30.061Z,4.21
2022-09-30T06:21:30.043Z,4.22
2022-09-30T06:22:30.013Z,4.16
2022-09-30T06:23:29.995Z,4.14
2022-09-30T06:24:29.974Z,4.16
2022-09-30T06:25:29.958Z,4.22
2022-09-30T06:26:29.933Z,4.14
2022-09-30T06:27:29.918Z,4.21
2022-09-30T06:28:29.898Z,4.24
2022-09-30T06:29:29.883Z,4.28
2022-09-30T06:30:34.904Z,4.20
2022-09-30T06:31:29.899Z,4.24
2022-09-30T06:32:29.817Z,4.31
2022-09-30T06:33:29.797Z,4.31
2022-09-30T06:34:29.774Z,4.36
2022-09-30T06:35:29.759Z,4.28
2022-09-30T06:36:29.750Z,4.40
2022-09-30T06:37:29.724Z,4.42
2022-09-30T06:38:29.705Z,4.36
2022-09-30T06:39:29.745Z,4.43
2022-09-30T06:40:29.691Z,4.52
2022-09-30T06:41:29.644Z,4.49
2022-09-30T06:42:29.645Z,4.57
2022-09-30T06:43:29.604Z,4.67
2022-09-30T06:44:29.601Z,4.64
2022-09-30T06:45:32.983Z,4.68
2022-09-30T06:46:31.267Z,4.68
2022-09-30T06:47:29.555Z,4.75
2022-09-30T06:48:37.616Z,4.78
2022-09-30T06:49:42.873Z,4.84
2022-09-30T06:50:29.458Z,4.90
2022-09-30T06:51:29.439Z,4.94
2022-09-30T06:52:29.495Z,5.04
2022-09-30T06:53:29.402Z,4.95
2022-09-30T06:54:29.376Z,5.07
2022-09-30T06:55:29.370Z,5.10
2022-09-30T06:56:29.344Z,5.13
2022-09-30T06:57:29.320Z,5.20
2022-09-30T06:58:29.299Z,5.28
2022-09-30T06:59:29.281Z,5.33
2022-09-30T07:00:29.269Z,5.47
2022-09-30T07:01:29.283Z,5.44
2022-09-30T07:02:29.261Z,5.51
2022-09-30T07:03:29.211Z,5.58
2022-09-30T07:04:29.203Z,5.65
2022-09-30T07:05:29.168Z,5.76
2022-09-30T07:06:29.146Z,5.81
2022-09-30T07:07:29.125Z,5.83
2022-09-30T07:08:29.164Z,5.99
2022-09-30T07:09:29.142Z,5.98
2022-09-30T07:10:29.074Z,6.02
2022-09-30T07:11:29.052Z,6.15
2022-09-30T07:12:29.032Z,6.17
2022-09-30T07:13:29.012Z,6.31
2022-09-30T07:14:29.004Z,6.17
2022-09-30T07:15:28.972Z,6.29
2022-09-30T07:16:29.032Z,6.41
2022-09-30T07:17:28.937Z,6.39
2022-09-30T07:18:28.922Z,6.53
2022-09-30T07:19:28.895Z,6.64
2022-09-30T07:20:28.874Z,6.62
2022-09-30T07:21:28.857Z,6.75
2022-09-30T07:22:28.840Z,6.80
2022-09-30T07:23:28.818Z,6.86
2022-09-30T07:24:28.799Z,6.85
2022-09-30T07:25:28.782Z,6.97
2022-09-30T07:26:28.760Z,7.04
2022-09-30T07:27:28.746Z,7.15
2022-09-30T07:28:28.736Z,7.18
2022-09-30T07:29:36.668Z,7.29
2022-09-30T07:30:28.776Z,7.25
2022-09-30T07:31:33.419Z,7.31
2022-09-30T07:32:28.706Z,7.41
2022-09-30T07:33:28.638Z,7.56
2022-09-30T07:34:28.608Z,7.62
2022-09-30T07:35:28.601Z,7.64
2022-09-30T07:36:32.550Z,7.77
2022-09-30T07:37:28.556Z,7.84
2022-09-30T07:38:28.539Z,7.96
2022-09-30T07:39:28.519Z,8.09
2022-09-30T07:40:28.510Z,8.08
2022-09-30T07:41:28.482Z,8.16
2022-09-30T07:42:28.481Z,8.23
2022-09-30T07:43:28.450Z,8.31
2022-09-30T07:44:28.436Z,8.45
2022-09-30T07:45:28.444Z,8.50
2022-09-30T07:46:28.397Z,8.54
2022-09-30T07:47:28.373Z,8.59
2022-09-30T07:48:28.355Z,8.71
2022-09-30T07:49:28.339Z,8.72
2022-09-30T07:50:28.317Z,8.75
2022-09-30T07:51:28.304Z,8.75
2022-09-30T07:52:28.283Z,8.69
2022-09-30T07:53:28.272Z,8.74
2022-09-30T07:54:28.252Z,8.90
2022-09-30T07:55:28.234Z,8.82
2022-09-30T07:56:29.710Z,9.03
2022-09-30T07:57:28.198Z,9.12
2022-09-30T07:58:28.177Z,9.21
2022-09-30T07:59:28.160Z,9.24
2022-09-30T08:00:42.223Z,9.27
2022-09-30T08:01:28.163Z,9.31
2022-09-30T08:02:28.151Z,9.47
2022-09-30T08:03:28.092Z,9.52
2022-09-30T08:04:28.076Z,9.58
2022-09-30T08:05:28.059Z,9.70
2022-09-30T08:06:28.041Z,9.70
2022-09-30T08:07:28.024Z,9.87
2022-09-30T08:08:28.008Z,9.90
2022-09-30T08:09:28.257Z,10.03
2022-09-30T08:10:27.983Z,10.12
2022-09-30T08:11:27.956Z,10.23
2022-09-30T08:12:27.951Z,10.30
2022-09-30T08:13:27.925Z,10.42
2022-09-30T08:14:27.918Z,10.46
2022-09-30T08:15:27.892Z,10.46
2022-09-30T08:16:27.914Z,10.55
2022-09-30T08:17:27.861Z,10.71
2022-09-30T08:18:27.846Z,10.82
2022-09-30T08:19:27.829Z,10.83
2022-09-30T08:20:27.812Z,10.86
2022-09-30T08:21:27.796Z,10.92
2022-09-30T08:22:27.784Z,10.98
2022-09-30T08:23:27.764Z,11.08
2022-09-30T08:24:27.863Z,11.20
2022-09-30T08:25:27.733Z,11.33
2022-09-30T08:26:27.727Z,11.40
2022-09-30T08:27:27.746Z,11.38
2022-09-30T08:28:27.738Z,11.51
2022-09-30T08:29:54.449Z,11.62
2022-09-30T08:30:27.684Z,11.59
2022-09-30T08:31:27.694Z,11.71
2022-09-30T08:32:27.675Z,11.80
2022-09-30T08:33:27.610Z,11.88
2022-09-30T08:34:27.596Z,12.03
2022-09-30T08:35:27.579Z,12.11
2022-09-30T08:36:27.575Z,12.11
2022-09-30T08:37:27.553Z,12.17
2022-09-30T08:38:27.543Z,12.32
2022-09-30T08:39:27.524Z,12.40
2022-09-30T08:40:27.512Z,12.54
2022-09-30T08:41:27.496Z,12.61
2022-09-30T08:42:49.100Z,12.73
2022-09-30T08:43:27.465Z,12.68
2022-09-30T08:44:27.458Z,12.80
2022-09-30T08:45:27.486Z,12.80
2022-09-30T08:46:27.481Z,12.87
2022-09-30T08:47:27.415Z,12.90
2022-09-30T08:48:27.396Z,13.05
2022-09-30T08:49:27.383Z,13.12
2022-09-30T08:50:27.368Z,13.27
2022-09-30T08:51:27.352Z,13.36
2022-09-30T08:52:30.995Z,13.52
2022-09-30T08:53:27.359Z,13.73
2022-09-30T08:54:27.313Z,13.87
2022-09-30T08:55:27.296Z,13.93
2022-09-30T08:56:27.291Z,13.97
2022-09-30T08:57:27.279Z,14.05
2022-09-30T08:58:27.262Z,14.05
2022-09-30T08:59:27.241Z,14.23
2022-09-30T09:00:27.240Z,14.40
2022-09-30T09:01:27.290Z,14.44
2022-09-30T09:02:27.257Z,14.61
2022-09-30T09:03:27.188Z,14.71
2022-09-30T09:04:27.253Z,14.71
2022-09-30T09:05:27.178Z,14.78
2022-09-30T09:06:27.152Z,15.02
2022-09-30T09:07:27.141Z,15.04
2022-09-30T09:08:27.132Z,15.25
2022-09-30T09:09:27.110Z,15.32
2022-09-30T09:10:27.105Z,15.51
2022-09-30T09:11:27.090Z,15.65
2022-09-30T09:12:27.070Z,15.90
2022-09-30T09:13:27.053Z,16.09
2022-09-30T09:14:27.041Z,16.37
2022-09-30T09:15:27.031Z,16.66
2022-09-30T09:16:27.055Z,16.98
2022-09-30T09:17:27.006Z,17.20
2022-09-30T09:18:26.990Z,17.37
2022-09-30T09:19:26.985Z,17.56
2022-09-30T09:20:26.982Z,17.49
2022-09-30T09:21:26.952Z,17.57
2022-09-30T09:22:26.964Z,17.73
2022-09-30T09:23:26.959Z,17.86
2022-09-30T09:24:26.920Z,17.84
2022-09-30T09:25:26.915Z,18.02
2022-09-30T09:26:26.913Z,18.27
2022-09-30T09:27:26.917Z,18.37
2022-09-30T09:28:26.938Z,18.60
2022-09-30T09:29:26.858Z,18.79
2022-09-30T09:30:26.856Z,18.82
2022-09-30T09:31:26.894Z,18.97
2022-09-30T09:32:26.828Z,19.08
2022-09-30T09:33:26.821Z,19.23
2022-09-30T09:34:26.801Z,19.34
2022-09-30T09:35:26.791Z,19.52
2022-09-30T09:36:26.780Z,19.49
2022-09-30T09:37:26.778Z,19.60
2022-09-30T09:38:26.765Z,19.78
2022-09-30T09:39:26.748Z,19.84
2022-09-30T09:40:26.736Z,19.87
2022-09-30T09:41:26.730Z,19.94
2022-09-30T09:42:26.780Z,19.96
2022-09-30T09:43:35.380Z,20.11
2022-09-30T09:45:32.199Z,20.52
2022-09-30T09:46:32.135Z,20.70
2022-09-30T09:47:32.216Z,20.86
2022-09-30T09:48:32.118Z,21.14
2022-09-30T09:49:32.115Z,21.22
2022-09-30T09:50:32.097Z,21.22
2022-09-30T09:51:32.089Z,21.10
2022-09-30T09:52:32.088Z,21.08
2022-09-30T09:53:32.069Z,21.07
2022-09-30T09:54:32.061Z,21.15
2022-09-30T09:55:32.050Z,21.17
2022-09-30T09:56:32.734Z,21.28
2022-09-30T09:57:32.034Z,21.41
2022-09-30T09:58:32.025Z,21.53
2022-09-30T09:59:32.012Z,21.50
2022-09-30T10:00:32.004Z,21.60
2022-09-30T10:01:32.049Z,21.68
2022-09-30T10:02:32.031Z,21.77
2022-09-30T10:03:32.127Z,21.78
2022-09-30T10:04:31.971Z,21.84
2022-09-30T10:05:31.998Z,21.97
2022-09-30T10:06:31.951Z,21.97
2022-09-30T10:07:31.942Z,21.80
2022-09-30T10:08:31.939Z,21.72
2022-09-30T10:09:31.931Z,21.74
2022-09-30T10:10:31.916Z,21.74
2022-09-30T10:11:31.907Z,21.91
2022-09-30T10:12:31.896Z,22.07
2022-09-30T10:13:31.888Z,22.25
2022-09-30T10:14:31.884Z,22.34
2022-09-30T10:15:31.877Z,22.46
2022-09-30T10:16:31.862Z,22.49
2022-09-30T10:17:31.866Z,22.58
2022-09-30T10:18:31.846Z,22.68
2022-09-30T10:19:31.840Z,22.70
2022-09-30T10:20:31.829Z,22.71
2022-09-30T10:21:31.821Z,22.81
2022-09-30T10:22:31.815Z,23.16
2022-09-30T10:23:31.812Z,23.55
2022-09-30T10:24:31.797Z,23.71
2022-09-30T10:25:31.791Z,23.85
2022-09-30T10:26:31.781Z,24.06
2022-09-30T10:27:31.782Z,24.24
2022-09-30T10:28:31.876Z,24.43
2022-09-30T10:29:31.764Z,24.37
2022-09-30T10:30:31.748Z,24.44
2022-09-30T10:31:31.879Z,24.63
2022-09-30T10:32:31.741Z,24.62
2022-09-30T10:33:31.738Z,24.61
2022-09-30T10:34:31.726Z,24.44
2022-09-30T10:35:31.759Z,24.47
2022-09-30T10:36:31.708Z,24.65
2022-09-30T10:37:31.707Z,24.82
2022-09-30T10:38:31.735Z,24.97
2022-09-30T10:39:31.704Z,25.09
2022-09-30T10:40:31.684Z,25.16
2022-09-30T10:41:31.669Z,25.18
2022-09-30T10:42:31.666Z,25.26
2022-09-30T10:43:31.659Z,25.24
2022-09-30T10:44:31.650Z,25.16
2022-09-30T10:45:31.657Z,25.31
2022-09-30T10:46:31.682Z,25.51
2022-09-30T10:47:36.729Z,25.68
2022-09-30T10:48:31.626Z,25.95
2022-09-30T10:49:31.618Z,25.92
2022-09-30T10:50:31.617Z,25.96
2022-09-30T10:51:31.606Z,25.88
2022-09-30T10:52:31.598Z,25.76
2022-09-30T10:53:31.593Z,25.88
2022-09-30T10:54:31.589Z,26.04
2022-09-30T10:55:31.580Z,25.98
2022-09-30T10:56:31.576Z,25.91
2022-09-30T10:57:31.573Z,25.95
2022-09-30T10:58:31.562Z,26.07
2022-09-30T10:59:31.559Z,26.31
2022-09-30T11:00:31.552Z,26.39
2022-09-30T11:01:31.885Z,26.29
2022-09-30T11:02:31.544Z,26.22
2022-09-30T11:03:31.600Z,26.30
2022-09-30T11:04:31.543Z,26.30
2022-09-30T11:05:31.523Z,26.39
2022-09-30T11:06:31.516Z,26.60
2022-09-30T11:07:31.511Z,26.59
2022-09-30T11:08:31.506Z,26.46
2022-09-30T11:09:31.497Z,26.33
2022-09-30T11:10:31.494Z,25.92
2022-09-30T11:11:31.486Z,25.49
2022-09-30T11:12:31.481Z,24.94
2022-09-30T11:13:31.475Z,24.32
2022-09-30T11:14:31.473Z,23.89
2022-09-30T11:15:31.466Z,23.37
2022-09-30T11:16:31.700Z,22.86
2022-09-30T11:17:31.448Z,22.41
2022-09-30T11:18:31.444Z,22.22
2022-09-30T11:19:31.441Z,22.18
2022-09-30T11:20:31.427Z,21.99
2022-09-30T11:21:31.419Z,21.62
2022-09-30T11:22:31.416Z,21.66
2022-09-30T11:23:31.407Z,21.75
2022-09-30T11:24:31.397Z,21.88
2022-09-30T11:25:31.385Z,22.23
2022-09-30T11:26:31.382Z,22.47
2022-09-30T11:27:31.371Z,22.77
2022-09-30T11:28:31.391Z,22.99
2022-09-30T11:29:31.361Z,23.37
2022-09-30T11:30:31.349Z,23.58
2022-09-30T11:31:31.422Z,23.59
2022-09-30T11:32:31.333Z,23.54
2022-09-30T11:33:31.324Z,23.33
2022-09-30T11:34:31.317Z,23.29
2022-09-30T11:35:31.307Z,23.02
2022-09-30T11:36:31.302Z,22.77
2022-09-30T11:37:31.290Z,22.41
2022-09-30T11:38:31.289Z,22.23
2022-09-30T11:39:31.297Z,22.07
2022-09-30T11:40:31.266Z,21.77
2022-09-30T11:41:31.254Z,21.59
2022-09-30T11:42:31.260Z,21.51
2022-09-30T11:43:31.241Z,21.50
2022-09-30T11:44:31.230Z,21.63
2022-09-30T11:45:31.327Z,21.88
2022-09-30T11:46:31.213Z,22.26
2022-09-30T11:47:31.203Z,22.46
2022-09-30T11:48:32.948Z,22.95
2022-09-30T11:49:31.187Z,23.33
2022-09-30T11:50:31.178Z,23.63
2022-09-30T11:51:31.168Z,23.91
2022-09-30T11:52:31.161Z,24.16
2022-09-30T11:53:31.150Z,24.32
2022-09-30T11:54:31.149Z,24.44
2022-09-30T11:55:31.139Z,24.50
2022-09-30T11:56:31.126Z,24.47
2022-09-30T11:57:31.116Z,24.41
2022-09-30T11:58:46.573Z,24.43
2022-09-30T11:59:31.107Z,24.19
2022-09-30T12:00:31.096Z,24.07
2022-09-30T12:01:31.086Z,24.09
2022-09-30T12:02:31.079Z,24.24
2022-09-30T12:03:31.154Z,24.44
2022-09-30T12:04:31.066Z,24.82
2022-09-30T12:05:31.063Z,25.19
2022-09-30T12:06:31.611Z,25.34
2022-09-30T12:07:31.044Z,25.58
2022-09-30T12:08:31.029Z,25.83
2022-09-30T12:09:31.031Z,26.01
2022-09-30T12:10:31.020Z,26.31
2022-09-30T12:11:31.020Z,26.31
2022-09-30T12:12:31.001Z,26.52
2022-09-30T12:13:30.995Z,26.56
2022-09-30T12:14:30.991Z,26.70
2022-09-30T12:15:30.984Z,26.63
2022-09-30T12:16:31.409Z,26.64
2022-09-30T12:17:30.972Z,26.83
2022-09-30T12:18:30.961Z,26.85
2022-09-30T12:19:30.957Z,27.01
2022-09-30T12:20:30.952Z,26.86
2022-09-30T12:21:30.940Z,26.68
2022-09-30T12:22:30.936Z,26.31
2022-09-30T12:23:30.928Z,25.81
2022-09-30T12:24:30.922Z,25.63
2022-09-30T12:25:30.936Z,25.56
2022-09-30T12:26:31.502Z,25.71
2022-09-30T12:27:30.996Z,25.80
2022-09-30T12:28:30.964Z,25.93
2022-09-30T12:29:30.889Z,26.03
2022-09-30T12:30:30.882Z,26.34
2022-09-30T12:31:30.927Z,26.51
2022-09-30T12:32:30.885Z,26.74
2022-09-30T12:33:30.861Z,27.00
2022-09-30T12:34:30.860Z,26.98
2022-09-30T12:35:30.850Z,27.25
2022-09-30T12:36:31.433Z,27.37
2022-09-30T12:37:30.839Z,27.63
2022-09-30T12:38:30.835Z,27.73
2022-09-30T12:39:30.833Z,27.58
2022-09-30T12:40:30.823Z,27.68
2022-09-30T12:41:30.817Z,27.72
2022-09-30T12:42:30.819Z,27.79
2022-09-30T12:43:30.806Z,27.75
2022-09-30T12:44:30.801Z,27.76
2022-09-30T12:45:30.845Z,27.71
2022-09-30T12:46:31.164Z,27.33
2022-09-30T12:47:30.784Z,26.96
2022-09-30T12:48:30.780Z,26.46
2022-09-30T12:49:30.774Z,25.81
2022-09-30T12:50:30.775Z,25.29
2022-09-30T12:51:30.766Z,24.77
2022-09-30T12:52:30.755Z,24.10
2022-09-30T12:53:30.749Z,23.59
2022-09-30T12:54:30.741Z,23.13
2022-09-30T12:55:30.743Z,22.78
2022-09-30T12:56:31.170Z,22.56
2022-09-30T12:57:30.737Z,22.19
2022-09-30T12:58:30.763Z,21.88
2022-09-30T12:59:30.708Z,21.48
2022-09-30T13:00:30.698Z,21.19
2022-09-30T13:01:30.752Z,20.85
2022-09-30T13:02:30.748Z,20.56
2022-09-30T13:03:30.670Z,20.26
2022-09-30T13:04:30.662Z,19.97
2022-09-30T13:05:30.651Z,19.79
2022-09-30T13:06:31.072Z,19.66
2022-09-30T13:07:30.633Z,19.52
2022-09-30T13:08:30.626Z,19.44
2022-09-30T13:09:30.614Z,19.22
2022-09-30T13:10:30.664Z,19.17
2022-09-30T13:11:30.609Z,19.01
2022-09-30T13:12:30.590Z,19.00
2022-09-30T13:13:30.579Z,19.07
2022-09-30T13:14:30.563Z,18.96
2022-09-30T13:15:30.564Z,18.92
2022-09-30T13:16:30.823Z,18.79
2022-09-30T13:17:30.527Z,18.71
2022-09-30T13:18:30.519Z,18.67
2022-09-30T13:19:30.509Z,18.63
2022-09-30T13:20:30.501Z,18.48
2022-09-30T13:21:32.203Z,18.43
2022-09-30T13:22:30.474Z,18.37
2022-09-30T13:23:30.464Z,18.36
2022-09-30T13:24:30.464Z,18.23
2022-09-30T13:25:30.435Z,18.05
2022-09-30T13:26:30.642Z,17.95
2022-09-30T13:27:30.416Z,17.93
2022-09-30T13:28:30.421Z,17.94
2022-09-30T13:29:30.394Z,17.79
2022-09-30T13:30:34.307Z,17.75
2022-09-30T13:31:30.469Z,17.71
2022-09-30T13:32:30.359Z,17.63
2022-09-30T13:33:30.341Z,17.59
2022-09-30T13:34:30.335Z,17.65